Hauptseite
METAR-TAF:

METAR-TAF

Flughäfen :

Yap, Mikronesien

Breite: 09-29N, Länge: 138-05E, Höhe: 28 m

Beobachtung

Neuester Wetterbericht von vor 1 Stunde und 2 Minuten, um 04:51 UTC
Wind 6 kt aus unterschiedlichen Richtungen
Temperatur 31°C
Luftfeuchtigkeit 79%
Luftdruck 1008 hPa
Sichtweite: 19.3 km
Leicht bewölkt in der Höhe von 1700 ft
Aufgelockert bewölkt in der Höhe von 30000 ft

METAR: PTYA 190451Z VRB06KT 12SM FEW017 SCT300 31/27 A2978 RMK SLP086 T03130265

Zeit: 15:53 (05:53 UTC)

Prognose

Neuester Wetterbericht von vor 32 Minuten, um 05:21 UTC
Gültige Prognose vom 19 um 06 UTC bis 20 um 06 UTC
Wind 7 kt aus Ost/Südost
Sichtweite: 10 km
Aufgelockert bewölkt in der Höhe von 1700 ft
Aufgelockert bewölkt in der Höhe von 3000 ft
Schauer in der Nähe

TAF: PTYA 190521Z 1906/2006 12007KT P6SM VCSH SCT017 SCT030

Wetterbeobachtungen und Prognosen von mehr als 4000 Flughäfen (METAR und TAF Bericht).

Die verfügbaren Stationen werden durch gelbe und rote Markierungen auf der Karte dargestellt.

Führen Sie die Maus auf sie, um den Namen der Station zu sehen.

Darauf klicken, um die Beobachtung von Wetterbeobachtungen und Prognosen zu sehen.

Um die Karte zu ändern : klicken Sie auf den grünen Tasten mit einem schwarzen Kreuz Zum Vergrößern, auf den grünen Button mit einem Gedankenstrich zu verkleinern, oder auf die grünen Pfeile für benachbarte Karten.


METAR-TAF: